Latest METARs, TAFs and NOTAMs for TNCM


---------------------------------------------------------------------------
	(OBSERVATIONS)
TNCM 231300Z 09013KT 9999 FEW020 29/22 Q1017 A3006 NOSIG=
TNCM 231200Z 10012KT 080V150 9999 SCT017 28/22 Q1017 A3004 NOSIG=
TNCM 231100Z 09008KT 050V120 9999 FEW018 27/21 Q1016 NOSIG RMK
    A3003=
---------------------------------------------------------------------------
	(TERMINAL AREA FORECAST)
TNCM 231138Z 2312/2412 11012KT P6SM VCSH SCT025=
---------------------------------------------------------------------------
	(NOTAMS)


TNCM A0130/18 CRANE ERECTED IN THE MAHO AREA 44M HIGH. CRANE
    WILL BE MARKED BY A RED AND WHITE FLAG FROM SR TO SS AND
    A RED OBSTACLE LIGHT WILL BE DISPLAYED AT ITS HIGHEST POINT
    FROM SS TO SR DAILY. CRANE BOOM EXTENSION IS 39M MAX FROM
    CENTERPOINT. 30 APR 00:01 2018 UNTIL 30 JUL 23:59 2018. CREATED:
    11 APR 20:22 2018

TNCM A0172/18 A4 JETBRIDGE LEAD IN GUIDANCE LINE UNUSAEBLE DUE
    TO TEMPORARY DEPARTURE PAVILLION STRUCTURE. THE TAXILINE
    PORTION IS BETWEEN A4 JETBRIDGE AND THE CHARLIE APRON. 07
    MAY 16:30 2018 UNTIL 07 AUG 23:59 2018. CREATED: 07 MAY 16:02
    2018

TNCM A0212/18 THREE THRESHOLD LIGHTS RWY 28 UNSERVICEABLE. 06
    JUN 12:30 2018 UNTIL 06 AUG 23:59 2018. CREATED: 06 JUN 12:29
    2018

TNCM A0213/18 THREE RWY END LIGHTS RWY 10 UNSERVICEABLE. 06 JUN
    12:30 2018 UNTIL 06 AUG 23:59 2018. CREATED: 06 JUN 12:33
    2018

TNCM A0214/18 TAXIWAY IDENTIFICATION SIGNS AT INTERSECTION FOXTROT,
    DELTA, ECHO, AND ALPHA NOT AVAILABLE. 06 JUN 12:34 2018 UNTIL
    06 AUG 23:59 2018. CREATED: 06 JUN 12:38 2018

TNCM A0215/18 TAXIWAY G1 AND G2 CLOSED DUE WIP. 06 JUN 12:38
    2018 UNTIL 06 AUG 23:59 2018. CREATED: 06 JUN 12:42 2018

TNCM A0216/18 WINDSOCKS LIGHTS RWY 10 UNSERVICEABLE. 06 JUN 12:42
    2018 UNTIL 06 AUG 23:59 2018. CREATED: 06 JUN 12:46 2018

TNCM A0239/17 PJD NDB 284.0 KHZ OUT OF SERVICE AND WILL BE PERMANENTLY
    WITHDRAWN. 18 JUN 22:16 2017 UNTIL PERM. CREATED: 18 JUN
    22:20 2017

TNCM A0246/18 JULIANA SECONDARY SURVEILLANCE RADAR UNSERVICEABLE.
    25 JUN 14:13 2018 UNTIL 25 SEP 23:59 2018. CREATED: 25 JUN
    14:25 2018

TNCM A0247/18 JULIANA PRIMARY SURVEILLANCE RADAR UNSERVICEABLE.
    25 JUN 14:15 2018 UNTIL 25 SEP 23:59 2018. CREATED: 25 JUN
    14:16 2018

TNCM A0248/18 JULIANA TEMPO COOR SHALL BE VIA INTERNATIONAL TELEPHONE
    LINES 1-721-545-52160 OR 1-721-545-5753. 25 JUN 14:18 2018
    UNTIL 25 SEP 23:59 2018. CREATED: 25 JUN 14:19 2018

TNCM A0249/18 JULIANA ATIS UNSERVICEABLE. 25 JUN 14:22 2018 UNTIL
    25 SEP 23:59 2018. CREATED: 25 JUN 14:23 2018

TNCM A0250/18 JULIANA AMHS UNSERVICEABLE , FLIGHT PLAN MESSAGES
    RECEIVED AND TRANSMITTED BY MEANS OF AISR SYSTEM. 25 JUN
    14:26 2018 UNTIL 25 SEP 23:59 2018. CREATED: 25 JUN 14:28
    2018

TNCM A0254/18 WINDSOCK RWY 28 NOT AVAILABLE. 03 JUL 15:05 2018
    UNTIL 06 AUG 23:59 2018. CREATED: 03 JUL 15:05 2018

---------------------------------------------------------------------------